Bacau, Romania
Current Conditions -  °F | °C
As of 12:30 PM on Friday 31 Oct 2014 (Local Time) from LRBC Reporting Station
Clear Clear  
Wind Chill: 54°   Ceiling: Unl
Heat Index: 54°   Visibility: 6mi
Dew Point: 37°   Wind: 20mph
Humidity: 54%   Direction: 350°N
Pressure: 30.27"   Gusts: NA
Location:  46.58°N, 26.92°E
Report Text: LRBC 310930Z 35017KT CAVOK 12/03 Q1025
Loading
Personal Weather Stations






























Interactive Weather Map
Tropical Storm Tracking
New forecast layout! Learn more

10-Day Weather Forecast

Advertisements
Track Severe Weather on mobile